sensor_id;sensor_type;location;lat;lon;timestamp;P1;durP1;ratioP1;P2;durP2;ratioP2
35424;SDS011;21537;48.226;16.400;2022-08-25T00:01:24;46.13;;;18.17;;
35424;SDS011;21537;48.226;16.400;2022-08-25T00:03:56;36.05;;;17.70;;
35424;SDS011;21537;48.226;16.400;2022-08-25T00:06:23;42.55;;;18.15;;
35424;SDS011;21537;48.226;16.400;2022-08-25T00:08:49;50.10;;;17.58;;
35424;SDS011;21537;48.226;16.400;2022-08-25T00:11:16;43.95;;;18.88;;
35424;SDS011;21537;48.226;16.400;2022-08-25T00:13:45;45.25;;;18.52;;
35424;SDS011;21537;48.226;16.400;2022-08-25T00:16:13;45.15;;;19.25;;
35424;SDS011;21537;48.226;16.400;2022-08-25T00:18:42;49.72;;;19.38;;
35424;SDS011;21537;48.226;16.400;2022-08-25T00:21:13;46.38;;;18.92;;
35424;SDS011;21537;48.226;16.400;2022-08-25T00:23:40;44.97;;;19.85;;
35424;SDS011;21537;48.226;16.400;2022-08-25T00:26:06;33.72;;;18.85;;
35424;SDS011;21537;48.226;16.400;2022-08-25T00:28:33;47.20;;;19.35;;
35424;SDS011;21537;48.226;16.400;2022-08-25T00:30:59;38.33;;;19.00;;
35424;SDS011;21537;48.226;16.400;2022-08-25T00:33:26;42.05;;;18.58;;
35424;SDS011;21537;48.226;16.400;2022-08-25T00:35:55;44.13;;;19.63;;
35424;SDS011;21537;48.226;16.400;2022-08-25T00:38:21;37.55;;;18.48;;
35424;SDS011;21537;48.226;16.400;2022-08-25T00:40:48;41.70;;;18.27;;
35424;SDS011;21537;48.226;16.400;2022-08-25T00:43:34;40.63;;;18.20;;
35424;SDS011;21537;48.226;16.400;2022-08-25T00:46:02;39.00;;;18.45;;
35424;SDS011;21537;48.226;16.400;2022-08-25T00:48:28;39.45;;;18.58;;
35424;SDS011;21537;48.226;16.400;2022-08-25T00:50:54;42.95;;;17.13;;
35424;SDS011;21537;48.226;16.400;2022-08-25T00:55:46;45.60;;;19.70;;
35424;SDS011;21537;48.226;16.400;2022-08-25T00:58:17;49.15;;;19.65;;
35424;SDS011;21537;48.226;16.400;2022-08-25T01:00:47;39.03;;;18.02;;
35424;SDS011;21537;48.226;16.400;2022-08-25T01:03:16;40.75;;;17.23;;
35424;SDS011;21537;48.226;16.400;2022-08-25T01:05:44;40.08;;;18.10;;
35424;SDS011;21537;48.226;16.400;2022-08-25T01:08:11;50.35;;;17.17;;
35424;SDS011;21537;48.226;16.400;2022-08-25T01:10:39;40.90;;;17.92;;
35424;SDS011;21537;48.226;16.400;2022-08-25T01:16:01;35.15;;;18.77;;
35424;SDS011;21537;48.226;16.400;2022-08-25T01:18:28;46.58;;;18.20;;
35424;SDS011;21537;48.226;16.400;2022-08-25T01:21:05;43.22;;;17.75;;
35424;SDS011;21537;48.226;16.400;2022-08-25T01:23:31;42.78;;;17.63;;
35424;SDS011;21537;48.226;16.400;2022-08-25T01:26:08;43.90;;;17.55;;
35424;SDS011;21537;48.226;16.400;2022-08-25T01:28:40;44.53;;;18.02;;
35424;SDS011;21537;48.226;16.400;2022-08-25T01:31:27;41.35;;;19.05;;
35424;SDS011;21537;48.226;16.400;2022-08-25T01:33:54;48.13;;;18.55;;
35424;SDS011;21537;48.226;16.400;2022-08-25T01:36:21;41.35;;;18.58;;
35424;SDS011;21537;48.226;16.400;2022-08-25T01:38:47;44.45;;;18.98;;
35424;SDS011;21537;48.226;16.400;2022-08-25T01:41:15;39.47;;;17.88;;
35424;SDS011;21537;48.226;16.400;2022-08-25T01:43:49;37.63;;;19.48;;
35424;SDS011;21537;48.226;16.400;2022-08-25T01:46:15;40.08;;;18.05;;
35424;SDS011;21537;48.226;16.400;2022-08-25T01:48:41;43.53;;;19.88;;
35424;SDS011;21537;48.226;16.400;2022-08-25T01:51:06;43.33;;;19.00;;
35424;SDS011;21537;48.226;16.400;2022-08-25T01:53:32;39.03;;;18.20;;
35424;SDS011;21537;48.226;16.400;2022-08-25T01:55:58;43.20;;;18.70;;
35424;SDS011;21537;48.226;16.400;2022-08-25T01:58:31;38.67;;;18.80;;
35424;SDS011;21537;48.226;16.400;2022-08-25T02:00:59;39.75;;;18.25;;
35424;SDS011;21537;48.226;16.400;2022-08-25T02:03:27;41.13;;;19.95;;
35424;SDS011;21537;48.226;16.400;2022-08-25T02:05:54;41.00;;;18.80;;
35424;SDS011;21537;48.226;16.400;2022-08-25T02:08:21;38.67;;;19.02;;
35424;SDS011;21537;48.226;16.400;2022-08-25T02:10:47;39.10;;;18.85;;
35424;SDS011;21537;48.226;16.400;2022-08-25T02:13:14;37.03;;;18.60;;
35424;SDS011;21537;48.226;16.400;2022-08-25T02:15:45;42.90;;;19.45;;
35424;SDS011;21537;48.226;16.400;2022-08-25T02:18:16;43.45;;;17.70;;
35424;SDS011;21537;48.226;16.400;2022-08-25T02:20:43;40.03;;;19.92;;
35424;SDS011;21537;48.226;16.400;2022-08-25T02:23:09;44.35;;;18.80;;
35424;SDS011;21537;48.226;16.400;2022-08-25T02:25:36;41.60;;;18.88;;
35424;SDS011;21537;48.226;16.400;2022-08-25T02:28:03;44.58;;;18.92;;
35424;SDS011;21537;48.226;16.400;2022-08-25T02:30:29;36.45;;;18.00;;
35424;SDS011;21537;48.226;16.400;2022-08-25T02:32:55;37.17;;;17.95;;
35424;SDS011;21537;48.226;16.400;2022-08-25T02:35:21;42.17;;;19.35;;
35424;SDS011;21537;48.226;16.400;2022-08-25T02:37:49;38.72;;;18.33;;
35424;SDS011;21537;48.226;16.400;2022-08-25T02:40:16;36.05;;;18.45;;
35424;SDS011;21537;48.226;16.400;2022-08-25T02:42:42;38.83;;;19.15;;
35424;SDS011;21537;48.226;16.400;2022-08-25T02:45:08;36.33;;;18.35;;
35424;SDS011;21537;48.226;16.400;2022-08-25T02:47:34;43.72;;;18.23;;
35424;SDS011;21537;48.226;16.400;2022-08-25T02:50:02;37.17;;;18.23;;
35424;SDS011;21537;48.226;16.400;2022-08-25T02:52:29;41.42;;;19.42;;
35424;SDS011;21537;48.226;16.400;2022-08-25T02:54:55;43.75;;;18.33;;
35424;SDS011;21537;48.226;16.400;2022-08-25T02:57:21;43.00;;;19.05;;
35424;SDS011;21537;48.226;16.400;2022-08-25T02:59:47;36.42;;;17.85;;
35424;SDS011;21537;48.226;16.400;2022-08-25T03:02:13;34.53;;;18.20;;
35424;SDS011;21537;48.226;16.400;2022-08-25T03:04:41;43.95;;;18.00;;
35424;SDS011;21537;48.226;16.400;2022-08-25T03:07:07;40.80;;;18.02;;
35424;SDS011;21537;48.226;16.400;2022-08-25T03:09:34;41.13;;;18.40;;
35424;SDS011;21537;48.226;16.400;2022-08-25T03:12:00;33.67;;;17.95;;
35424;SDS011;21537;48.226;16.400;2022-08-25T03:14:26;39.25;;;18.20;;
35424;SDS011;21537;48.226;16.400;2022-08-25T03:16:52;36.72;;;18.77;;
35424;SDS011;21537;48.226;16.400;2022-08-25T03:19:17;38.80;;;19.40;;
35424;SDS011;21537;48.226;16.400;2022-08-25T03:21:43;36.10;;;17.42;;
35424;SDS011;21537;48.226;16.400;2022-08-25T03:24:10;38.28;;;18.65;;
35424;SDS011;21537;48.226;16.400;2022-08-25T03:26:36;33.30;;;18.77;;
35424;SDS011;21537;48.226;16.400;2022-08-25T03:29:23;35.95;;;18.45;;
35424;SDS011;21537;48.226;16.400;2022-08-25T03:31:51;35.63;;;17.00;;
35424;SDS011;21537;48.226;16.400;2022-08-25T03:34:19;34.50;;;18.65;;
35424;SDS011;21537;48.226;16.400;2022-08-25T03:36:46;37.58;;;18.35;;
35424;SDS011;21537;48.226;16.400;2022-08-25T03:39:13;34.53;;;18.40;;
35424;SDS011;21537;48.226;16.400;2022-08-25T03:41:40;33.17;;;18.33;;
35424;SDS011;21537;48.226;16.400;2022-08-25T03:44:06;38.97;;;18.35;;
35424;SDS011;21537;48.226;16.400;2022-08-25T03:46:38;39.40;;;18.90;;
35424;SDS011;21537;48.226;16.400;2022-08-25T03:49:06;35.45;;;18.35;;
35424;SDS011;21537;48.226;16.400;2022-08-25T03:51:37;32.85;;;18.35;;
35424;SDS011;21537;48.226;16.400;2022-08-25T03:54:07;43.38;;;19.80;;
35424;SDS011;21537;48.226;16.400;2022-08-25T03:56:34;37.60;;;21.30;;
35424;SDS011;21537;48.226;16.400;2022-08-25T03:59:01;43.75;;;20.02;;
35424;SDS011;21537;48.226;16.400;2022-08-25T04:01:27;46.42;;;20.73;;
35424;SDS011;21537;48.226;16.400;2022-08-25T04:03:54;36.50;;;19.70;;
35424;SDS011;21537;48.226;16.400;2022-08-25T04:06:20;49.05;;;22.27;;
35424;SDS011;21537;48.226;16.400;2022-08-25T04:08:46;42.15;;;21.73;;
35424;SDS011;21537;48.226;16.400;2022-08-25T04:11:13;38.30;;;21.55;;
35424;SDS011;21537;48.226;16.400;2022-08-25T04:13:42;41.88;;;22.63;;
35424;SDS011;21537;48.226;16.400;2022-08-25T04:16:13;38.25;;;22.15;;
35424;SDS011;21537;48.226;16.400;2022-08-25T04:18:42;37.75;;;20.23;;
35424;SDS011;21537;48.226;16.400;2022-08-25T04:21:09;44.65;;;22.48;;
35424;SDS011;21537;48.226;16.400;2022-08-25T04:23:37;50.85;;;22.35;;
35424;SDS011;21537;48.226;16.400;2022-08-25T04:28:42;39.85;;;20.23;;
35424;SDS011;21537;48.226;16.400;2022-08-25T04:31:09;35.85;;;20.60;;
35424;SDS011;21537;48.226;16.400;2022-08-25T04:33:36;32.65;;;20.15;;
35424;SDS011;21537;48.226;16.400;2022-08-25T04:36:06;34.08;;;20.45;;
35424;SDS011;21537;48.226;16.400;2022-08-25T04:38:35;36.50;;;18.80;;
35424;SDS011;21537;48.226;16.400;2022-08-25T04:41:03;47.38;;;20.83;;
35424;SDS011;21537;48.226;16.400;2022-08-25T04:43:30;49.47;;;21.80;;
35424;SDS011;21537;48.226;16.400;2022-08-25T04:45:58;31.35;;;18.30;;
35424;SDS011;21537;48.226;16.400;2022-08-25T04:48:24;32.13;;;19.48;;
35424;SDS011;21537;48.226;16.400;2022-08-25T04:50:50;35.70;;;18.58;;
35424;SDS011;21537;48.226;16.400;2022-08-25T04:53:17;44.25;;;19.05;;
35424;SDS011;21537;48.226;16.400;2022-08-25T04:55:44;39.95;;;20.50;;
35424;SDS011;21537;48.226;16.400;2022-08-25T04:58:11;39.90;;;20.00;;
35424;SDS011;21537;48.226;16.400;2022-08-25T05:00:39;38.53;;;20.77;;
35424;SDS011;21537;48.226;16.400;2022-08-25T05:03:06;40.75;;;21.15;;
35424;SDS011;21537;48.226;16.400;2022-08-25T05:05:35;40.70;;;19.65;;
35424;SDS011;21537;48.226;16.400;2022-08-25T05:08:02;37.60;;;19.17;;
35424;SDS011;21537;48.226;16.400;2022-08-25T05:10:29;39.47;;;19.65;;
35424;SDS011;21537;48.226;16.400;2022-08-25T05:12:55;45.08;;;20.05;;
35424;SDS011;21537;48.226;16.400;2022-08-25T05:15:21;31.67;;;18.60;;
35424;SDS011;21537;48.226;16.400;2022-08-25T05:18:23;36.03;;;18.05;;
35424;SDS011;21537;48.226;16.400;2022-08-25T05:20:51;32.15;;;18.23;;
35424;SDS011;21537;48.226;16.400;2022-08-25T05:23:21;38.20;;;19.08;;
35424;SDS011;21537;48.226;16.400;2022-08-25T05:25:48;35.60;;;19.05;;
35424;SDS011;21537;48.226;16.400;2022-08-25T05:28:15;43.40;;;19.08;;
35424;SDS011;21537;48.226;16.400;2022-08-25T05:30:42;36.60;;;18.58;;
35424;SDS011;21537;48.226;16.400;2022-08-25T05:33:10;36.20;;;18.23;;
35424;SDS011;21537;48.226;16.400;2022-08-25T05:35:36;36.72;;;17.83;;
35424;SDS011;21537;48.226;16.400;2022-08-25T05:38:03;38.10;;;18.30;;
35424;SDS011;21537;48.226;16.400;2022-08-25T05:40:29;29.48;;;17.55;;
35424;SDS011;21537;48.226;16.400;2022-08-25T05:42:56;31.20;;;16.55;;
35424;SDS011;21537;48.226;16.400;2022-08-25T05:45:22;35.90;;;16.98;;
35424;SDS011;21537;48.226;16.400;2022-08-25T05:47:48;36.13;;;17.25;;
35424;SDS011;21537;48.226;16.400;2022-08-25T05:50:14;31.17;;;16.85;;
35424;SDS011;21537;48.226;16.400;2022-08-25T05:52:41;30.33;;;16.88;;
35424;SDS011;21537;48.226;16.400;2022-08-25T05:55:08;40.00;;;17.73;;
35424;SDS011;21537;48.226;16.400;2022-08-25T05:57:34;38.45;;;18.67;;
35424;SDS011;21537;48.226;16.400;2022-08-25T06:00:00;35.40;;;17.85;;
35424;SDS011;21537;48.226;16.400;2022-08-25T06:02:26;31.48;;;17.80;;
35424;SDS011;21537;48.226;16.400;2022-08-25T06:07:40;37.72;;;17.75;;
35424;SDS011;21537;48.226;16.400;2022-08-25T06:10:06;35.20;;;19.15;;
35424;SDS011;21537;48.226;16.400;2022-08-25T06:12:38;37.33;;;17.23;;
35424;SDS011;21537;48.226;16.400;2022-08-25T06:15:05;33.53;;;17.85;;
35424;SDS011;21537;48.226;16.400;2022-08-25T06:17:32;38.83;;;18.13;;
35424;SDS011;21537;48.226;16.400;2022-08-25T06:20:05;35.47;;;18.67;;
35424;SDS011;21537;48.226;16.400;2022-08-25T06:22:33;37.33;;;19.08;;
35424;SDS011;21537;48.226;16.400;2022-08-25T06:24:59;29.80;;;18.27;;
35424;SDS011;21537;48.226;16.400;2022-08-25T06:27:26;38.25;;;17.90;;
35424;SDS011;21537;48.226;16.400;2022-08-25T06:29:51;37.33;;;18.92;;
35424;SDS011;21537;48.226;16.400;2022-08-25T06:32:17;34.88;;;19.02;;
35424;SDS011;21537;48.226;16.400;2022-08-25T06:34:43;35.25;;;17.48;;
35424;SDS011;21537;48.226;16.400;2022-08-25T06:37:09;31.67;;;17.08;;
35424;SDS011;21537;48.226;16.400;2022-08-25T06:39:35;38.88;;;16.83;;
35424;SDS011;21537;48.226;16.400;2022-08-25T06:42:00;33.53;;;16.90;;
35424;SDS011;21537;48.226;16.400;2022-08-25T06:44:27;40.35;;;18.88;;
35424;SDS011;21537;48.226;16.400;2022-08-25T06:46:53;29.55;;;16.90;;
35424;SDS011;21537;48.226;16.400;2022-08-25T06:49:19;39.97;;;17.05;;
35424;SDS011;21537;48.226;16.400;2022-08-25T06:51:45;46.35;;;18.38;;
35424;SDS011;21537;48.226;16.400;2022-08-25T06:54:11;34.65;;;18.77;;
35424;SDS011;21537;48.226;16.400;2022-08-25T06:56:40;37.08;;;17.95;;
35424;SDS011;21537;48.226;16.400;2022-08-25T06:59:07;29.65;;;16.98;;
35424;SDS011;21537;48.226;16.400;2022-08-25T07:01:34;44.20;;;18.23;;
35424;SDS011;21537;48.226;16.400;2022-08-25T07:04:02;36.70;;;17.63;;
35424;SDS011;21537;48.226;16.400;2022-08-25T07:06:30;36.83;;;17.35;;
35424;SDS011;21537;48.226;16.400;2022-08-25T07:08:59;32.95;;;16.77;;
35424;SDS011;21537;48.226;16.400;2022-08-25T07:11:27;30.80;;;18.50;;
35424;SDS011;21537;48.226;16.400;2022-08-25T07:13:53;43.00;;;19.40;;
35424;SDS011;21537;48.226;16.400;2022-08-25T07:16:20;36.45;;;16.90;;
35424;SDS011;21537;48.226;16.400;2022-08-25T07:18:46;36.45;;;16.92;;
35424;SDS011;21537;48.226;16.400;2022-08-25T07:21:12;43.05;;;18.27;;
35424;SDS011;21537;48.226;16.400;2022-08-25T07:23:39;32.30;;;18.30;;
35424;SDS011;21537;48.226;16.400;2022-08-25T07:26:14;38.58;;;17.30;;
35424;SDS011;21537;48.226;16.400;2022-08-25T07:28:43;35.08;;;17.92;;
35424;SDS011;21537;48.226;16.400;2022-08-25T07:31:09;34.53;;;17.25;;
35424;SDS011;21537;48.226;16.400;2022-08-25T07:33:35;37.13;;;17.30;;
35424;SDS011;21537;48.226;16.400;2022-08-25T07:36:02;28.92;;;16.25;;
35424;SDS011;21537;48.226;16.400;2022-08-25T07:38:28;37.33;;;17.48;;
35424;SDS011;21537;48.226;16.400;2022-08-25T07:41:02;32.38;;;16.42;;
35424;SDS011;21537;48.226;16.400;2022-08-25T07:43:28;33.17;;;17.38;;
35424;SDS011;21537;48.226;16.400;2022-08-25T07:45:54;31.95;;;16.75;;
35424;SDS011;21537;48.226;16.400;2022-08-25T07:48:20;34.63;;;18.45;;
35424;SDS011;21537;48.226;16.400;2022-08-25T07:50:46;30.00;;;16.63;;
35424;SDS011;21537;48.226;16.400;2022-08-25T07:53:13;41.70;;;19.67;;
35424;SDS011;21537;48.226;16.400;2022-08-25T07:55:40;43.33;;;18.70;;
35424;SDS011;21537;48.226;16.400;2022-08-25T07:58:07;34.25;;;16.75;;
35424;SDS011;21537;48.226;16.400;2022-08-25T08:00:34;34.92;;;18.45;;
35424;SDS011;21537;48.226;16.400;2022-08-25T08:03:02;33.50;;;17.60;;
35424;SDS011;21537;48.226;16.400;2022-08-25T08:05:29;39.10;;;17.75;;
35424;SDS011;21537;48.226;16.400;2022-08-25T08:07:56;31.58;;;17.13;;
35424;SDS011;21537;48.226;16.400;2022-08-25T08:10:22;30.48;;;16.25;;
35424;SDS011;21537;48.226;16.400;2022-08-25T08:12:49;36.55;;;16.02;;
35424;SDS011;21537;48.226;16.400;2022-08-25T08:15:16;42.78;;;17.30;;
35424;SDS011;21537;48.226;16.400;2022-08-25T08:17:43;38.67;;;17.48;;
35424;SDS011;21537;48.226;16.400;2022-08-25T08:20:10;40.28;;;18.20;;
35424;SDS011;21537;48.226;16.400;2022-08-25T08:22:38;36.35;;;17.55;;
35424;SDS011;21537;48.226;16.400;2022-08-25T08:25:06;34.97;;;17.92;;
35424;SDS011;21537;48.226;16.400;2022-08-25T08:27:33;32.72;;;17.52;;
35424;SDS011;21537;48.226;16.400;2022-08-25T08:30:00;43.75;;;16.70;;
35424;SDS011;21537;48.226;16.400;2022-08-25T08:32:27;33.13;;;17.02;;
35424;SDS011;21537;48.226;16.400;2022-08-25T08:34:52;30.13;;;15.93;;
35424;SDS011;21537;48.226;16.400;2022-08-25T08:37:18;34.42;;;16.00;;
35424;SDS011;21537;48.226;16.400;2022-08-25T08:39:46;28.27;;;15.63;;
35424;SDS011;21537;48.226;16.400;2022-08-25T08:44:53;38.45;;;17.15;;
35424;SDS011;21537;48.226;16.400;2022-08-25T08:50:05;38.92;;;16.40;;
35424;SDS011;21537;48.226;16.400;2022-08-25T08:52:37;29.88;;;15.95;;
35424;SDS011;21537;48.226;16.400;2022-08-25T08:55:10;28.05;;;15.73;;
35424;SDS011;21537;48.226;16.400;2022-08-25T08:57:50;40.35;;;16.00;;
35424;SDS011;21537;48.226;16.400;2022-08-25T09:00:20;31.70;;;14.52;;
35424;SDS011;21537;48.226;16.400;2022-08-25T09:05:23;34.35;;;14.60;;
35424;SDS011;21537;48.226;16.400;2022-08-25T09:07:56;32.70;;;13.25;;
35424;SDS011;21537;48.226;16.400;2022-08-25T09:27:55;29.02;;;11.38;;
35424;SDS011;21537;48.226;16.400;2022-08-25T09:30:25;31.08;;;11.52;;
35424;SDS011;21537;48.226;16.400;2022-08-25T09:32:57;26.63;;;10.60;;
35424;SDS011;21537;48.226;16.400;2022-08-25T09:35:33;22.70;;;11.15;;
35424;SDS011;21537;48.226;16.400;2022-08-25T09:38:07;27.00;;;10.57;;
35424;SDS011;21537;48.226;16.400;2022-08-25T09:40:56;25.85;;;11.00;;
35424;SDS011;21537;48.226;16.400;2022-08-25T09:45:57;22.15;;;9.38;;
35424;SDS011;21537;48.226;16.400;2022-08-25T09:48:33;16.55;;;8.32;;
35424;SDS011;21537;48.226;16.400;2022-08-25T09:51:33;21.48;;;8.80;;
35424;SDS011;21537;48.226;16.400;2022-08-25T09:54:03;20.45;;;8.10;;
35424;SDS011;21537;48.226;16.400;2022-08-25T09:57:01;19.35;;;9.05;;
35424;SDS011;21537;48.226;16.400;2022-08-25T09:59:33;22.30;;;9.02;;
35424;SDS011;21537;48.226;16.400;2022-08-25T10:02:10;18.67;;;8.93;;
35424;SDS011;21537;48.226;16.400;2022-08-25T10:04:51;20.55;;;9.50;;
35424;SDS011;21537;48.226;16.400;2022-08-25T10:07:25;21.13;;;9.27;;
35424;SDS011;21537;48.226;16.400;2022-08-25T10:09:54;20.45;;;10.15;;
35424;SDS011;21537;48.226;16.400;2022-08-25T10:12:28;19.02;;;9.65;;
35424;SDS011;21537;48.226;16.400;2022-08-25T10:15:29;20.88;;;9.35;;
35424;SDS011;21537;48.226;16.400;2022-08-25T10:17:54;19.38;;;9.25;;
35424;SDS011;21537;48.226;16.400;2022-08-25T10:20:26;20.30;;;10.32;;
35424;SDS011;21537;48.226;16.400;2022-08-25T10:23:07;20.05;;;9.65;;
35424;SDS011;21537;48.226;16.400;2022-08-25T10:25:35;19.92;;;9.27;;
35424;SDS011;21537;48.226;16.400;2022-08-25T10:36:54;16.40;;;9.00;;
35424;SDS011;21537;48.226;16.400;2022-08-25T10:39:42;21.88;;;9.07;;
35424;SDS011;21537;48.226;16.400;2022-08-25T11:00:03;13.05;;;7.15;;
35424;SDS011;21537;48.226;16.400;2022-08-25T11:05:58;13.55;;;7.18;;
35424;SDS011;21537;48.226;16.400;2022-08-25T11:08:52;16.00;;;7.00;;
35424;SDS011;21537;48.226;16.400;2022-08-25T11:14:47;17.85;;;7.93;;
35424;SDS011;21537;48.226;16.400;2022-08-25T11:17:23;16.48;;;8.13;;
35424;SDS011;21537;48.226;16.400;2022-08-25T11:20:10;20.75;;;8.52;;
35424;SDS011;21537;48.226;16.400;2022-08-25T11:22:46;20.75;;;9.07;;
35424;SDS011;21537;48.226;16.400;2022-08-25T11:25:44;15.73;;;8.13;;
35424;SDS011;21537;48.226;16.400;2022-08-25T11:31:00;19.15;;;7.85;;
35424;SDS011;21537;48.226;16.400;2022-08-25T11:33:30;12.82;;;7.30;;
35424;SDS011;21537;48.226;16.400;2022-08-25T11:35:58;19.13;;;8.45;;
35424;SDS011;21537;48.226;16.400;2022-08-25T11:48:17;12.35;;;7.82;;
35424;SDS011;21537;48.226;16.400;2022-08-25T11:51:04;15.05;;;7.78;;
35424;SDS011;21537;48.226;16.400;2022-08-25T11:53:42;17.05;;;8.95;;
35424;SDS011;21537;48.226;16.400;2022-08-25T11:56:11;15.93;;;7.68;;
35424;SDS011;21537;48.226;16.400;2022-08-25T11:59:00;14.63;;;7.60;;
35424;SDS011;21537;48.226;16.400;2022-08-25T12:04:30;19.42;;;7.20;;
35424;SDS011;21537;48.226;16.400;2022-08-25T12:15:25;16.23;;;7.25;;
35424;SDS011;21537;48.226;16.400;2022-08-25T12:18:37;16.20;;;7.30;;
35424;SDS011;21537;48.226;16.400;2022-08-25T12:23:39;19.75;;;7.47;;
35424;SDS011;21537;48.226;16.400;2022-08-25T12:29:25;13.20;;;6.15;;
35424;SDS011;21537;48.226;16.400;2022-08-25T12:32:00;12.33;;;6.20;;
35424;SDS011;21537;48.226;16.400;2022-08-25T12:38:09;14.02;;;6.55;;
35424;SDS011;21537;48.226;16.400;2022-08-25T12:45:47;14.85;;;6.47;;
35424;SDS011;21537;48.226;16.400;2022-08-25T12:50:59;18.35;;;6.00;;
35424;SDS011;21537;48.226;16.400;2022-08-25T12:56:00;13.98;;;6.35;;
35424;SDS011;21537;48.226;16.400;2022-08-25T12:58:49;14.85;;;5.78;;
35424;SDS011;21537;48.226;16.400;2022-08-25T13:12:26;13.95;;;6.00;;
35424;SDS011;21537;48.226;16.400;2022-08-25T13:14:55;11.88;;;4.97;;
35424;SDS011;21537;48.226;16.400;2022-08-25T13:17:27;10.10;;;5.05;;
35424;SDS011;21537;48.226;16.400;2022-08-25T13:22:48;12.48;;;4.57;;
35424;SDS011;21537;48.226;16.400;2022-08-25T13:25:17;15.52;;;5.50;;
35424;SDS011;21537;48.226;16.400;2022-08-25T13:27:54;13.15;;;5.20;;
35424;SDS011;21537;48.226;16.400;2022-08-25T13:30:31;11.88;;;4.63;;
35424;SDS011;21537;48.226;16.400;2022-08-25T13:32:59;9.23;;;5.13;;
35424;SDS011;21537;48.226;16.400;2022-08-25T13:35:44;10.32;;;4.97;;
35424;SDS011;21537;48.226;16.400;2022-08-25T13:38:36;10.40;;;4.88;;
35424;SDS011;21537;48.226;16.400;2022-08-25T13:41:02;11.82;;;5.13;;
35424;SDS011;21537;48.226;16.400;2022-08-25T13:43:29;10.55;;;4.93;;
35424;SDS011;21537;48.226;16.400;2022-08-25T13:45:55;9.48;;;4.05;;
35424;SDS011;21537;48.226;16.400;2022-08-25T13:48:34;12.40;;;4.90;;
35424;SDS011;21537;48.226;16.400;2022-08-25T13:53:52;9.60;;;5.15;;
35424;SDS011;21537;48.226;16.400;2022-08-25T13:56:26;11.00;;;5.20;;
35424;SDS011;21537;48.226;16.400;2022-08-25T13:58:57;9.10;;;4.90;;
35424;SDS011;21537;48.226;16.400;2022-08-25T14:01:29;13.50;;;4.88;;
35424;SDS011;21537;48.226;16.400;2022-08-25T14:09:39;11.32;;;4.18;;
35424;SDS011;21537;48.226;16.400;2022-08-25T14:12:24;14.40;;;4.73;;
35424;SDS011;21537;48.226;16.400;2022-08-25T14:15:25;10.30;;;4.60;;
35424;SDS011;21537;48.226;16.400;2022-08-25T14:20:31;6.72;;;4.15;;
35424;SDS011;21537;48.226;16.400;2022-08-25T14:22:59;12.82;;;4.43;;
35424;SDS011;21537;48.226;16.400;2022-08-25T14:25:39;12.73;;;4.47;;
35424;SDS011;21537;48.226;16.400;2022-08-25T14:28:07;7.68;;;4.03;;
35424;SDS011;21537;48.226;16.400;2022-08-25T14:30:38;9.32;;;4.30;;
35424;SDS011;21537;48.226;16.400;2022-08-25T14:33:07;13.57;;;5.22;;
35424;SDS011;21537;48.226;16.400;2022-08-25T14:35:34;8.93;;;4.38;;
35424;SDS011;21537;48.226;16.400;2022-08-25T14:38:06;10.20;;;4.38;;
35424;SDS011;21537;48.226;16.400;2022-08-25T14:40:34;10.77;;;4.60;;
35424;SDS011;21537;48.226;16.400;2022-08-25T14:43:00;10.82;;;4.28;;
35424;SDS011;21537;48.226;16.400;2022-08-25T14:45:26;10.98;;;4.22;;
35424;SDS011;21537;48.226;16.400;2022-08-25T14:47:52;11.27;;;4.22;;
35424;SDS011;21537;48.226;16.400;2022-08-25T14:50:19;6.97;;;4.32;;
35424;SDS011;21537;48.226;16.400;2022-08-25T14:52:46;8.50;;;4.30;;
35424;SDS011;21537;48.226;16.400;2022-08-25T14:55:12;7.15;;;3.85;;
35424;SDS011;21537;48.226;16.400;2022-08-25T14:57:38;10.75;;;4.13;;
35424;SDS011;21537;48.226;16.400;2022-08-25T15:00:04;10.63;;;3.78;;
35424;SDS011;21537;48.226;16.400;2022-08-25T15:02:33;10.27;;;3.70;;
35424;SDS011;21537;48.226;16.400;2022-08-25T15:05:04;11.68;;;4.10;;
35424;SDS011;21537;48.226;16.400;2022-08-25T15:07:32;11.05;;;4.63;;
35424;SDS011;21537;48.226;16.400;2022-08-25T15:10:17;8.85;;;4.35;;
35424;SDS011;21537;48.226;16.400;2022-08-25T15:12:45;9.63;;;4.22;;
35424;SDS011;21537;48.226;16.400;2022-08-25T15:15:11;10.38;;;4.35;;
35424;SDS011;21537;48.226;16.400;2022-08-25T15:17:38;7.88;;;4.07;;
35424;SDS011;21537;48.226;16.400;2022-08-25T15:20:08;12.48;;;4.68;;
35424;SDS011;21537;48.226;16.400;2022-08-25T15:22:35;18.75;;;5.10;;
35424;SDS011;21537;48.226;16.400;2022-08-25T15:25:07;10.20;;;4.70;;
35424;SDS011;21537;48.226;16.400;2022-08-25T15:27:33;15.75;;;5.05;;
35424;SDS011;21537;48.226;16.400;2022-08-25T15:30:01;9.63;;;5.07;;
35424;SDS011;21537;48.226;16.400;2022-08-25T15:32:30;9.90;;;6.13;;
35424;SDS011;21537;48.226;16.400;2022-08-25T15:34:58;12.68;;;5.35;;
35424;SDS011;21537;48.226;16.400;2022-08-25T15:37:25;7.60;;;5.13;;
35424;SDS011;21537;48.226;16.400;2022-08-25T15:39:52;13.57;;;5.97;;
35424;SDS011;21537;48.226;16.400;2022-08-25T15:42:18;18.77;;;6.00;;
35424;SDS011;21537;48.226;16.400;2022-08-25T15:44:43;14.25;;;6.32;;
35424;SDS011;21537;48.226;16.400;2022-08-25T15:47:12;12.95;;;5.53;;
35424;SDS011;21537;48.226;16.400;2022-08-25T15:49:37;16.88;;;5.70;;
35424;SDS011;21537;48.226;16.400;2022-08-25T15:52:03;14.15;;;5.10;;
35424;SDS011;21537;48.226;16.400;2022-08-25T15:54:29;14.70;;;5.32;;
35424;SDS011;21537;48.226;16.400;2022-08-25T15:56:56;12.00;;;5.13;;
35424;SDS011;21537;48.226;16.400;2022-08-25T15:59:22;11.82;;;5.70;;
35424;SDS011;21537;48.226;16.400;2022-08-25T16:01:49;12.63;;;5.10;;
35424;SDS011;21537;48.226;16.400;2022-08-25T16:04:17;14.32;;;7.43;;
35424;SDS011;21537;48.226;16.400;2022-08-25T16:06:47;14.18;;;5.55;;
35424;SDS011;21537;48.226;16.400;2022-08-25T16:09:13;11.93;;;5.60;;
35424;SDS011;21537;48.226;16.400;2022-08-25T16:11:42;10.77;;;4.90;;
35424;SDS011;21537;48.226;16.400;2022-08-25T16:14:08;11.65;;;5.03;;
35424;SDS011;21537;48.226;16.400;2022-08-25T16:16:36;15.38;;;5.30;;
35424;SDS011;21537;48.226;16.400;2022-08-25T16:19:03;14.68;;;5.18;;
35424;SDS011;21537;48.226;16.400;2022-08-25T16:21:34;12.88;;;5.10;;
35424;SDS011;21537;48.226;16.400;2022-08-25T16:24:02;11.10;;;4.65;;
35424;SDS011;21537;48.226;16.400;2022-08-25T16:26:30;14.45;;;5.43;;
35424;SDS011;21537;48.226;16.400;2022-08-25T16:28:56;15.73;;;5.90;;
35424;SDS011;21537;48.226;16.400;2022-08-25T16:31:23;10.25;;;5.47;;
35424;SDS011;21537;48.226;16.400;2022-08-25T16:33:49;13.32;;;6.13;;
35424;SDS011;21537;48.226;16.400;2022-08-25T16:36:16;14.00;;;5.50;;
35424;SDS011;21537;48.226;16.400;2022-08-25T16:38:48;12.00;;;5.25;;
35424;SDS011;21537;48.226;16.400;2022-08-25T16:41:16;10.35;;;5.10;;
35424;SDS011;21537;48.226;16.400;2022-08-25T16:43:44;14.48;;;5.10;;
35424;SDS011;21537;48.226;16.400;2022-08-25T16:46:12;26.58;;;13.77;;
35424;SDS011;21537;48.226;16.400;2022-08-25T16:48:41;16.05;;;7.35;;